createdAt,value
2019-04-21T00:00:29.782Z,5.47
2019-04-21T00:03:08.906Z,4.10
2019-04-21T00:05:55.814Z,4.77
2019-04-21T00:08:35.332Z,3.23
2019-04-21T00:10:57.821Z,4.87
2019-04-21T00:13:21.142Z,4.10
2019-04-21T00:15:45.753Z,4.00
2019-04-21T00:18:19.063Z,5.07
2019-04-21T00:20:52.880Z,6.27
2019-04-21T00:23:37.750Z,5.17
2019-04-21T00:26:01.996Z,5.93
2019-04-21T00:28:47.217Z,3.50
2019-04-21T00:31:13.866Z,3.03
2019-04-21T00:33:29.992Z,3.53
2019-04-21T00:36:05.334Z,4.77
2019-04-21T00:39:02.981Z,3.77
2019-04-21T00:41:19.315Z,3.60
2019-04-21T00:43:47.930Z,4.10
2019-04-21T00:46:08.599Z,4.93
2019-04-21T00:48:53.966Z,5.27
2019-04-21T00:51:36.723Z,5.10
2019-04-21T00:54:05.414Z,4.97
2019-04-21T00:56:27.882Z,5.37
2019-04-21T00:58:59.939Z,5.27
2019-04-21T01:01:31.170Z,5.73
2019-04-21T01:04:04.803Z,4.20
2019-04-21T01:06:36.900Z,5.27
2019-04-21T01:09:03.763Z,3.80
2019-04-21T01:11:31.847Z,5.63
2019-04-21T01:14:12.045Z,3.93
2019-04-21T01:16:43.906Z,5.00
2019-04-21T01:19:05.096Z,5.80
2019-04-21T01:21:19.099Z,3.77
2019-04-21T01:23:48.724Z,3.67
2019-04-21T01:26:32.510Z,3.83
2019-04-21T01:29:08.712Z,4.73
2019-04-21T01:31:36.333Z,4.20
2019-04-21T01:34:16.315Z,3.83
2019-04-21T01:36:41.537Z,4.27
2019-04-21T01:39:35.028Z,8.10
2019-04-21T01:41:51.124Z,6.43
2019-04-21T01:44:19.678Z,7.63
2019-04-21T01:46:45.585Z,8.77
2019-04-21T01:49:13.145Z,8.93
2019-04-21T01:52:05.626Z,5.90
2019-04-21T01:54:40.389Z,6.13
2019-04-21T01:57:17.657Z,5.30
2019-04-21T01:59:42.504Z,6.07
2019-04-21T02:02:26.628Z,8.90
2019-04-21T02:04:57.576Z,8.13
2019-04-21T02:07:27.493Z,7.27
2019-04-21T02:10:00.784Z,6.73
2019-04-21T02:12:30.010Z,11.47
2019-04-21T02:15:08.903Z,4.37
2019-04-21T02:17:31.151Z,5.40
2019-04-21T02:19:56.210Z,7.30
2019-04-21T02:22:56.064Z,6.37
2019-04-21T02:25:08.685Z,6.90
2019-04-21T02:27:37.671Z,5.97
2019-04-21T02:30:14.250Z,4.70
2019-04-21T02:32:48.132Z,7.30
2019-04-21T02:35:30.171Z,6.70
2019-04-21T02:38:02.001Z,4.93
2019-04-21T02:45:29.679Z,7.10
2019-04-21T02:50:29.809Z,7.07
2019-04-21T02:58:08.349Z,7.23
2019-04-21T03:03:56.230Z,11.10
2019-04-21T03:06:45.689Z,5.20
2019-04-21T03:09:20.427Z,9.53
2019-04-21T03:11:52.291Z,6.53
2019-04-21T03:14:16.407Z,7.03
2019-04-21T03:16:46.949Z,5.47
2019-04-21T03:19:39.823Z,6.77
2019-04-21T03:21:52.136Z,5.53
2019-04-21T03:24:18.453Z,5.07
2019-04-21T03:27:01.889Z,9.60
2019-04-21T03:29:28.177Z,6.33
2019-04-21T03:32:28.437Z,5.57
2019-04-21T03:34:41.737Z,6.27
2019-04-21T03:39:30.908Z,7.23
2019-04-21T03:44:32.220Z,5.90
2019-04-21T03:54:39.186Z,6.60
2019-04-21T03:59:36.173Z,5.60
2019-04-21T04:05:03.014Z,8.10
2019-04-21T04:07:50.203Z,5.27
2019-04-21T04:12:44.475Z,6.00
2019-04-21T04:15:22.815Z,6.13
2019-04-21T04:17:40.390Z,6.03
2019-04-21T04:20:22.275Z,6.47
2019-04-21T04:22:56.329Z,6.40
2019-04-21T04:25:17.493Z,4.90
2019-04-21T04:27:59.897Z,9.83
2019-04-21T04:30:22.326Z,6.40
2019-04-21T04:32:46.316Z,5.80
2019-04-21T04:35:34.167Z,4.63
2019-04-21T04:38:13.640Z,6.13
2019-04-21T04:40:51.820Z,6.07
2019-04-21T04:48:05.814Z,6.90
2019-04-21T04:50:49.272Z,6.80
2019-04-21T04:53:15.709Z,4.83
2019-04-21T04:55:57.496Z,4.93
2019-04-21T04:58:23.413Z,10.17
2019-04-21T05:00:54.607Z,7.70
2019-04-21T05:09:04.255Z,4.93
2019-04-21T05:11:43.213Z,11.27
2019-04-21T05:14:02.774Z,6.53
2019-04-21T05:21:38.691Z,7.77
2019-04-21T05:23:51.148Z,6.23
2019-04-21T05:26:18.946Z,5.03
2019-04-21T05:28:47.516Z,4.60
2019-04-21T05:31:57.269Z,6.83
2019-04-21T05:34:27.621Z,5.03
2019-04-21T05:37:21.959Z,6.03
2019-04-21T05:40:05.739Z,8.60
2019-04-21T05:42:33.791Z,7.20
2019-04-21T05:45:18.485Z,4.43
2019-04-21T05:50:23.925Z,9.57
2019-04-21T05:52:53.561Z,6.60
2019-04-21T05:57:57.374Z,6.07
2019-04-21T06:00:52.646Z,6.50
2019-04-21T06:03:03.725Z,4.93
2019-04-21T06:08:08.909Z,7.97
2019-04-21T06:10:41.896Z,8.23
2019-04-21T06:13:13.076Z,7.27
2019-04-21T06:15:49.984Z,7.40
2019-04-21T06:18:21.783Z,6.90
2019-04-21T06:20:46.721Z,7.90
2019-04-21T06:23:22.422Z,8.33
2019-04-21T06:28:22.614Z,11.10
2019-04-21T06:30:59.324Z,11.27
2019-04-21T06:33:20.220Z,8.63
2019-04-21T06:36:24.051Z,9.93
2019-04-21T06:46:30.897Z,8.07
2019-04-21T06:54:04.397Z,11.73
2019-04-21T06:56:38.021Z,9.70
2019-04-21T06:59:03.707Z,8.33
2019-04-21T07:01:36.776Z,9.37
2019-04-21T07:04:11.724Z,9.47
2019-04-21T07:06:46.964Z,8.10
2019-04-21T07:09:18.979Z,12.43
2019-04-21T07:11:37.854Z,9.47
2019-04-21T07:14:28.024Z,12.20
2019-04-21T07:16:45.241Z,7.00
2019-04-21T07:21:42.213Z,9.73
2019-04-21T07:24:21.607Z,9.20
2019-04-21T07:26:42.731Z,12.13
2019-04-21T07:31:55.837Z,10.47
2019-04-21T07:34:21.716Z,8.70
2019-04-21T07:39:18.016Z,8.67
2019-04-21T07:41:46.992Z,8.37
2019-04-21T07:44:15.023Z,7.93
2019-04-21T07:46:46.989Z,9.30
2019-04-21T07:49:46.453Z,8.40
2019-04-21T07:52:34.962Z,10.37
2019-04-21T07:57:33.053Z,8.60
2019-04-21T08:00:21.380Z,8.77
2019-04-21T08:02:35.480Z,9.73
2019-04-21T08:05:16.281Z,8.30
2019-04-21T08:10:09.188Z,11.53
2019-04-21T08:12:37.932Z,14.67
2019-04-21T08:15:23.996Z,10.73
2019-04-21T08:17:45.705Z,8.30
2019-04-21T08:20:13.913Z,8.43
2019-04-21T08:27:55.644Z,7.63
2019-04-21T08:30:28.805Z,7.47
2019-04-21T08:33:04.380Z,7.73
2019-04-21T08:35:49.013Z,6.70
2019-04-21T08:37:55.650Z,6.63
2019-04-21T08:40:34.736Z,7.53
2019-04-21T08:42:56.770Z,6.60
2019-04-21T08:48:00.860Z,6.60
2019-04-21T08:50:30.877Z,7.53
2019-04-21T08:53:21.189Z,4.87
2019-04-21T08:55:56.607Z,5.57
2019-04-21T08:58:41.388Z,5.37
2019-04-21T09:01:23.823Z,4.80
2019-04-21T09:04:07.567Z,8.60
2019-04-21T09:09:10.965Z,7.10
2019-04-21T09:11:37.620Z,14.07
2019-04-21T09:14:13.582Z,6.47
2019-04-21T09:16:36.648Z,6.43
2019-04-21T09:19:11.571Z,5.87
2019-04-21T09:21:45.557Z,6.20
2019-04-21T09:24:16.226Z,7.27
2019-04-21T09:26:40.667Z,6.93
2019-04-21T09:29:07.858Z,6.40
2019-04-21T09:31:44.699Z,5.80
2019-04-21T09:34:21.933Z,6.13
2019-04-21T09:36:49.419Z,6.13
2019-04-21T09:39:20.157Z,9.13
2019-04-21T09:41:49.932Z,7.43
2019-04-21T09:44:25.508Z,4.47
2019-04-21T09:46:54.323Z,5.13
2019-04-21T09:49:25.341Z,5.03
2019-04-21T09:51:52.977Z,6.47
2019-04-21T09:54:27.798Z,5.33
2019-04-21T09:56:58.582Z,4.63
2019-04-21T09:59:31.363Z,6.30
2019-04-21T10:02:07.728Z,6.37
2019-04-21T10:04:27.157Z,5.83
2019-04-21T10:06:56.629Z,7.20
2019-04-21T10:09:26.449Z,6.53
2019-04-21T10:11:57.012Z,4.83
2019-04-21T10:14:26.641Z,6.57
2019-04-21T10:17:15.108Z,6.80
2019-04-21T10:19:46.252Z,5.00
2019-04-21T10:22:17.034Z,7.53
2019-04-21T10:24:46.774Z,6.37
2019-04-21T10:27:17.121Z,7.60
2019-04-21T10:29:48.551Z,6.77
2019-04-21T10:32:21.325Z,7.73
2019-04-21T10:34:49.600Z,6.97
2019-04-21T10:37:20.785Z,5.73
2019-04-21T10:39:51.494Z,5.80
2019-04-21T10:42:21.475Z,4.73
2019-04-21T10:44:51.119Z,7.23
2019-04-21T10:47:21.056Z,8.90
2019-04-21T10:49:50.705Z,6.17
2019-04-21T10:52:32.904Z,6.23
2019-04-21T10:55:17.650Z,7.77
2019-04-21T10:57:34.889Z,7.90
2019-04-21T11:00:08.688Z,5.78
2019-04-21T11:02:43.307Z,4.90
2019-04-21T11:05:14.461Z,4.83
2019-04-21T11:08:01.243Z,4.80
2019-04-21T11:10:20.105Z,6.47
2019-04-21T11:12:50.743Z,4.95
2019-04-21T11:15:21.201Z,4.75
2019-04-21T11:17:50.806Z,5.53
2019-04-21T11:20:22.802Z,5.40
2019-04-21T11:22:53.573Z,4.33
2019-04-21T11:25:24.274Z,4.55
2019-04-21T11:27:55.232Z,5.22
2019-04-21T11:30:25.596Z,5.53
2019-04-21T11:32:55.394Z,4.40
2019-04-21T11:35:25.471Z,4.58
2019-04-21T11:38:04.669Z,5.47
2019-04-21T11:40:27.672Z,4.85
2019-04-21T11:42:58.249Z,7.97
2019-04-21T11:45:32.718Z,4.87
2019-04-21T11:48:20.146Z,5.45
2019-04-21T11:50:50.884Z,5.07
2019-04-21T11:53:21.012Z,4.47
2019-04-21T11:55:53.218Z,6.30
2019-04-21T11:58:22.028Z,4.63
2019-04-21T12:00:55.716Z,4.13
2019-04-21T12:03:25.316Z,5.17
2019-04-21T12:05:55.306Z,5.37
2019-04-21T12:08:32.616Z,5.67
2019-04-21T12:10:57.610Z,7.80
2019-04-21T12:13:27.883Z,3.73
2019-04-21T12:15:59.052Z,5.93
2019-04-21T12:18:30.131Z,4.90
2019-04-21T12:21:01.061Z,5.43
2019-04-21T12:23:30.636Z,4.83
2019-04-21T12:26:01.219Z,6.93
2019-04-21T12:28:32.299Z,4.60
2019-04-21T12:31:03.306Z,5.53
2019-04-21T12:33:58.170Z,5.73
2019-04-21T12:36:27.747Z,6.73
2019-04-21T12:39:00.060Z,3.43
2019-04-21T12:41:28.787Z,5.03
2019-04-21T12:43:58.536Z,5.10
2019-04-21T12:46:27.988Z,5.50
2019-04-21T12:48:58.016Z,4.27
2019-04-21T12:51:28.056Z,3.37
2019-04-21T12:53:57.822Z,3.63
2019-04-21T12:56:27.597Z,4.30
2019-04-21T12:58:57.698Z,7.20
2019-04-21T13:01:27.430Z,4.30
2019-04-21T13:03:57.845Z,4.73
2019-04-21T13:06:27.734Z,5.20
2019-04-21T13:09:03.407Z,7.07
2019-04-21T13:11:29.024Z,5.90
2019-04-21T13:13:59.770Z,4.97
2019-04-21T13:16:29.561Z,4.63
2019-04-21T13:18:59.519Z,5.97
2019-04-21T13:21:29.915Z,7.30
2019-04-21T13:24:00.882Z,4.17
2019-04-21T13:26:42.188Z,9.70
2019-04-21T13:29:02.668Z,3.93
2019-04-21T13:31:32.265Z,5.00
2019-04-21T13:34:02.148Z,3.53
2019-04-21T13:36:31.821Z,4.03
2019-04-21T13:39:53.619Z,3.57
2019-04-21T13:42:10.118Z,7.40
2019-04-21T13:44:30.899Z,3.30
2019-04-21T13:47:00.832Z,5.07
2019-04-21T13:49:31.558Z,4.20
2019-04-21T13:52:02.547Z,3.60
2019-04-21T13:54:33.619Z,4.10
2019-04-21T13:57:04.781Z,4.33
2019-04-21T13:59:34.510Z,3.63
2019-04-21T14:02:04.742Z,3.40
2019-04-21T14:04:35.569Z,3.93
2019-04-21T14:07:06.059Z,3.60
2019-04-21T14:09:43.749Z,2.90
2019-04-21T14:12:07.616Z,3.17
2019-04-21T14:14:38.522Z,5.10
2019-04-21T14:17:08.930Z,4.30
2019-04-21T14:19:39.417Z,7.80
2019-04-21T14:22:11.619Z,4.83
2019-04-21T14:24:41.527Z,2.73
2019-04-21T14:27:12.152Z,3.50
2019-04-21T14:29:41.833Z,3.60
2019-04-21T14:32:11.454Z,3.80
2019-04-21T14:34:41.959Z,2.57
2019-04-21T14:37:13.036Z,6.10
2019-04-21T14:39:53.844Z,3.53
2019-04-21T14:42:14.061Z,3.53
2019-04-21T14:44:44.976Z,3.10
2019-04-21T14:47:35.076Z,4.10
2019-04-21T14:50:24.235Z,2.90
2019-04-21T14:53:29.654Z,4.87
2019-04-21T14:55:59.576Z,3.00
2019-04-21T14:58:29.118Z,3.37
2019-04-21T15:01:02.145Z,4.57
2019-04-21T15:03:32.142Z,3.90
2019-04-21T15:06:03.148Z,3.50
2019-04-21T15:08:33.420Z,4.13
2019-04-21T15:11:03.259Z,3.20
2019-04-21T15:13:32.846Z,4.40
2019-04-21T15:16:02.720Z,3.00
2019-04-21T15:18:32.773Z,2.73
2019-04-21T15:21:03.641Z,2.90
2019-04-21T15:23:33.990Z,2.63
2019-04-21T15:26:04.183Z,3.13
2019-04-21T15:28:35.729Z,2.83
2019-04-21T15:31:04.996Z,4.67
2019-04-21T15:33:35.011Z,3.13
2019-04-21T15:36:05.106Z,4.57
2019-04-21T15:38:35.878Z,4.53
2019-04-21T15:41:10.140Z,3.47
2019-04-21T15:43:36.815Z,3.60
2019-04-21T15:46:06.821Z,3.20
2019-04-21T15:48:37.050Z,4.10
2019-04-21T15:51:08.549Z,2.70
2019-04-21T15:53:38.014Z,2.67
2019-04-21T15:56:12.889Z,4.53
2019-04-21T15:59:01.741Z,4.87
2019-04-21T16:01:38.954Z,2.40
2019-04-21T16:04:08.702Z,2.77
2019-04-21T16:06:39.382Z,3.90
2019-04-21T16:09:16.071Z,3.10
2019-04-21T16:11:42.131Z,2.63
2019-04-21T16:14:11.867Z,3.70
2019-04-21T16:16:43.276Z,3.23
2019-04-21T16:19:14.169Z,4.53
2019-04-21T16:21:46.285Z,3.47
2019-04-21T16:24:16.321Z,3.43
2019-04-21T16:26:48.792Z,4.20
2019-04-21T16:29:18.441Z,3.57
2019-04-21T16:31:49.091Z,3.70
2019-04-21T16:34:19.850Z,4.47
2019-04-21T16:36:49.772Z,3.50
2019-04-21T16:39:19.690Z,3.13
2019-04-21T16:41:50.028Z,4.80
2019-04-21T16:44:20.905Z,8.20
2019-04-21T16:46:51.695Z,4.07
2019-04-21T16:49:22.026Z,5.97
2019-04-21T16:52:16.595Z,3.17
2019-04-21T16:54:49.708Z,5.37
2019-04-21T16:57:28.038Z,4.07
2019-04-21T17:00:04.410Z,4.20
2019-04-21T17:02:34.525Z,3.77
2019-04-21T17:05:04.911Z,5.73
2019-04-21T17:07:34.472Z,3.00
2019-04-21T17:10:04.588Z,3.23
2019-04-21T17:12:35.606Z,3.70
2019-04-21T17:15:21.550Z,7.93
2019-04-21T17:18:00.214Z,4.20
2019-04-21T17:20:21.667Z,3.10
2019-04-21T17:22:43.845Z,4.33
2019-04-21T17:25:16.129Z,4.03
2019-04-21T17:27:46.996Z,7.47
2019-04-21T17:30:17.221Z,4.53
2019-04-21T17:32:49.760Z,5.43
2019-04-21T17:35:19.810Z,4.73
2019-04-21T17:37:50.026Z,3.77
2019-04-21T17:40:26.446Z,3.67
2019-04-21T17:43:01.947Z,6.17
2019-04-21T17:45:28.893Z,6.97
2019-04-21T17:48:03.311Z,3.57
2019-04-21T17:50:59.279Z,2.80
2019-04-21T17:53:40.245Z,3.60
2019-04-21T17:56:31.731Z,4.87
2019-04-21T17:59:00.585Z,4.43
2019-04-21T18:01:32.060Z,4.03
2019-04-21T18:04:05.239Z,3.97
2019-04-21T18:06:44.295Z,6.83
2019-04-21T18:09:25.153Z,6.83
2019-04-21T18:11:46.833Z,4.83
2019-04-21T18:13:59.667Z,4.43
2019-04-21T18:16:36.389Z,4.77
2019-04-21T18:19:00.479Z,3.80
2019-04-21T18:21:54.120Z,4.87
2019-04-21T18:24:22.598Z,8.13
2019-04-21T18:26:56.573Z,8.70
2019-04-21T18:29:23.449Z,5.70
2019-04-21T18:31:57.687Z,5.27
2019-04-21T18:35:05.987Z,5.00
2019-04-21T18:38:11.370Z,7.17
2019-04-21T18:40:33.022Z,10.83
2019-04-21T18:43:42.158Z,14.70
2019-04-21T18:48:52.144Z,12.27
2019-04-21T18:51:34.900Z,13.43
2019-04-21T18:54:27.297Z,11.53
2019-04-21T18:56:44.064Z,12.97
2019-04-21T18:59:07.046Z,11.70
2019-04-21T19:01:38.453Z,16.30
2019-04-21T19:04:16.750Z,12.07
2019-04-21T19:06:56.150Z,15.23
2019-04-21T19:09:41.445Z,11.70
2019-04-21T19:12:20.846Z,12.97
2019-04-21T19:14:53.924Z,17.20
2019-04-21T19:20:00.839Z,13.00
2019-04-21T19:22:28.141Z,14.73
2019-04-21T19:24:59.431Z,13.83
2019-04-21T19:27:26.379Z,12.43
2019-04-21T19:30:08.362Z,11.87
2019-04-21T19:32:28.813Z,11.87
2019-04-21T19:34:45.543Z,13.03
2019-04-21T19:37:18.927Z,11.53
2019-04-21T19:40:03.569Z,12.93
2019-04-21T19:42:32.241Z,18.47
2019-04-21T19:45:11.799Z,22.43
2019-04-21T19:47:48.869Z,17.57
2019-04-21T19:50:16.897Z,15.23
2019-04-21T19:52:42.334Z,12.10
2019-04-21T19:55:02.381Z,13.50
2019-04-21T19:57:32.193Z,15.37
2019-04-21T20:00:04.154Z,13.83
2019-04-21T20:02:34.296Z,12.27
2019-04-21T20:05:09.536Z,13.23
2019-04-21T20:07:55.806Z,14.97
2019-04-21T20:10:26.993Z,17.37
2019-04-21T20:12:57.034Z,14.63
2019-04-21T20:15:36.101Z,16.23
2019-04-21T20:17:58.827Z,15.60
2019-04-21T20:20:15.242Z,14.07
2019-04-21T20:22:48.516Z,15.30
2019-04-21T20:25:20.882Z,14.77
2019-04-21T20:27:55.452Z,18.37
2019-04-21T20:30:37.769Z,14.00
2019-04-21T20:33:31.886Z,14.07
2019-04-21T20:35:48.569Z,12.77
2019-04-21T20:38:11.412Z,15.97
2019-04-21T20:40:36.203Z,13.00
2019-04-21T20:43:17.717Z,11.87
2019-04-21T20:45:45.811Z,13.07
2019-04-21T20:48:07.280Z,12.93
2019-04-21T20:50:41.761Z,10.00
2019-04-21T20:53:14.950Z,13.20
2019-04-21T20:55:48.979Z,10.97
2019-04-21T20:58:37.271Z,7.57
2019-04-21T21:01:20.264Z,8.73
2019-04-21T21:03:37.780Z,8.97
2019-04-21T21:05:58.541Z,6.80
2019-04-21T21:08:40.372Z,9.90
2019-04-21T21:11:06.859Z,6.07
2019-04-21T21:13:44.950Z,7.30
2019-04-21T21:16:27.226Z,11.30
2019-04-21T21:21:16.122Z,7.27
2019-04-21T21:23:49.303Z,5.50
2019-04-21T21:26:21.526Z,10.57
2019-04-21T21:28:45.957Z,4.70
2019-04-21T21:31:25.263Z,5.10
2019-04-21T21:33:58.387Z,5.00
2019-04-21T21:36:20.648Z,8.03
2019-04-21T21:38:55.922Z,4.17
2019-04-21T21:41:16.413Z,6.60
2019-04-21T21:43:39.171Z,4.80
2019-04-21T21:46:26.623Z,5.40
2019-04-21T21:48:50.061Z,4.17
2019-04-21T21:51:20.541Z,4.53
2019-04-21T21:53:42.567Z,5.10
2019-04-21T21:56:14.352Z,4.30
2019-04-21T21:58:46.237Z,5.13
2019-04-21T22:01:20.779Z,3.30
2019-04-21T22:03:58.325Z,7.53
2019-04-21T22:06:20.512Z,6.50
2019-04-21T22:08:50.420Z,4.20
2019-04-21T22:11:20.192Z,3.97
2019-04-21T22:14:02.812Z,4.50
2019-04-21T22:16:38.986Z,9.03
2019-04-21T22:19:15.621Z,4.40
2019-04-21T22:21:47.612Z,4.60
2019-04-21T22:24:09.549Z,3.97
2019-04-21T22:26:34.736Z,3.93
2019-04-21T22:29:05.591Z,4.03
2019-04-21T22:31:37.860Z,5.37
2019-04-21T22:34:09.421Z,5.20
2019-04-21T22:36:49.419Z,4.90
2019-04-21T22:39:30.667Z,4.90
2019-04-21T22:41:46.670Z,4.93
2019-04-21T22:44:20.762Z,3.27
2019-04-21T22:47:00.003Z,4.20
2019-04-21T22:49:23.586Z,3.63
2019-04-21T22:51:53.866Z,5.10
2019-04-21T22:54:31.773Z,5.33
2019-04-21T22:57:01.633Z,5.40
2019-04-21T22:59:28.130Z,5.03
2019-04-21T23:01:59.193Z,5.07
2019-04-21T23:04:35.884Z,6.73
2019-04-21T23:07:06.973Z,3.33
2019-04-21T23:09:32.855Z,3.20
2019-04-21T23:12:03.323Z,5.00
2019-04-21T23:14:46.836Z,5.43
2019-04-21T23:17:29.195Z,8.30
2019-04-21T23:19:59.977Z,5.57
2019-04-21T23:22:30.501Z,7.13
2019-04-21T23:24:59.512Z,3.63
2019-04-21T23:27:24.050Z,5.50
2019-04-21T23:30:08.408Z,4.63
2019-04-21T23:32:29.495Z,3.97
2019-04-21T23:34:47.078Z,4.80
2019-04-21T23:37:21.815Z,3.17
2019-04-21T23:39:52.211Z,2.93
2019-04-21T23:42:27.194Z,3.30
2019-04-21T23:44:55.167Z,3.83
2019-04-21T23:47:37.455Z,4.37
2019-04-21T23:50:00.459Z,7.33
2019-04-21T23:52:24.004Z,4.33
2019-04-21T23:54:53.848Z,3.73
2019-04-21T23:57:30.279Z,4.73
2019-04-21T23:59:57.378Z,3.20
